sensor_id;sensor_type;location;lat;lon;timestamp;P1;durP1;ratioP1;P2;durP2;ratioP2
57101;SDS011;42982;54.558;18.508;2023-12-07T00:00:51;13.35;;;7.78;;
57101;SDS011;42982;54.558;18.508;2023-12-07T00:01:53;15.02;;;7.80;;
57101;SDS011;42982;54.558;18.508;2023-12-07T00:02:56;13.02;;;8.10;;
57101;SDS011;42982;54.558;18.508;2023-12-07T00:04:00;13.32;;;7.45;;
57101;SDS011;42982;54.558;18.508;2023-12-07T00:05:02;14.90;;;7.60;;
57101;SDS011;42982;54.558;18.508;2023-12-07T00:06:05;13.45;;;7.50;;
57101;SDS011;42982;54.558;18.508;2023-12-07T00:07:08;12.68;;;7.68;;
57101;SDS011;42982;54.558;18.508;2023-12-07T00:08:10;12.45;;;7.28;;
57101;SDS011;42982;54.558;18.508;2023-12-07T00:09:12;14.88;;;8.02;;
57101;SDS011;42982;54.558;18.508;2023-12-07T00:10:14;15.70;;;8.45;;
57101;SDS011;42982;54.558;18.508;2023-12-07T00:11:19;15.82;;;8.20;;
57101;SDS011;42982;54.558;18.508;2023-12-07T00:12:24;13.32;;;7.75;;
57101;SDS011;42982;54.558;18.508;2023-12-07T00:13:27;11.90;;;6.90;;
57101;SDS011;42982;54.558;18.508;2023-12-07T00:14:33;14.70;;;7.88;;
57101;SDS011;42982;54.558;18.508;2023-12-07T00:15:35;13.30;;;7.65;;
57101;SDS011;42982;54.558;18.508;2023-12-07T00:16:37;14.40;;;7.82;;
57101;SDS011;42982;54.558;18.508;2023-12-07T00:17:39;11.38;;;7.28;;
57101;SDS011;42982;54.558;18.508;2023-12-07T00:18:41;15.60;;;7.60;;
57101;SDS011;42982;54.558;18.508;2023-12-07T00:19:47;13.82;;;7.78;;
57101;SDS011;42982;54.558;18.508;2023-12-07T00:20:53;15.82;;;7.93;;
57101;SDS011;42982;54.558;18.508;2023-12-07T00:21:55;12.55;;;7.13;;
57101;SDS011;42982;54.558;18.508;2023-12-07T00:22:59;11.25;;;7.18;;
57101;SDS011;42982;54.558;18.508;2023-12-07T00:24:01;15.18;;;7.65;;
57101;SDS011;42982;54.558;18.508;2023-12-07T00:25:06;12.93;;;7.28;;
57101;SDS011;42982;54.558;18.508;2023-12-07T00:26:10;13.88;;;7.50;;
57101;SDS011;42982;54.558;18.508;2023-12-07T00:27:15;12.98;;;6.93;;
57101;SDS011;42982;54.558;18.508;2023-12-07T00:28:16;12.80;;;7.50;;
57101;SDS011;42982;54.558;18.508;2023-12-07T00:29:18;11.52;;;7.30;;
57101;SDS011;42982;54.558;18.508;2023-12-07T00:30:20;14.13;;;7.20;;
57101;SDS011;42982;54.558;18.508;2023-12-07T00:31:25;12.88;;;7.63;;
57101;SDS011;42982;54.558;18.508;2023-12-07T00:32:31;12.45;;;7.18;;
57101;SDS011;42982;54.558;18.508;2023-12-07T00:33:35;11.13;;;6.57;;
57101;SDS011;42982;54.558;18.508;2023-12-07T00:34:40;13.65;;;7.40;;
57101;SDS011;42982;54.558;18.508;2023-12-07T00:35:43;12.00;;;7.13;;
57101;SDS011;42982;54.558;18.508;2023-12-07T00:36:45;13.98;;;7.55;;
57101;SDS011;42982;54.558;18.508;2023-12-07T00:37:48;12.45;;;7.35;;
57101;SDS011;42982;54.558;18.508;2023-12-07T00:38:50;12.43;;;7.30;;
57101;SDS011;42982;54.558;18.508;2023-12-07T00:39:55;13.15;;;7.90;;
57101;SDS011;42982;54.558;18.508;2023-12-07T00:41:01;14.98;;;7.70;;
57101;SDS011;42982;54.558;18.508;2023-12-07T00:42:06;12.52;;;7.40;;
57101;SDS011;42982;54.558;18.508;2023-12-07T00:43:09;11.40;;;7.30;;
57101;SDS011;42982;54.558;18.508;2023-12-07T00:44:10;12.88;;;6.97;;
57101;SDS011;42982;54.558;18.508;2023-12-07T00:45:18;12.30;;;7.10;;
57101;SDS011;42982;54.558;18.508;2023-12-07T00:46:20;14.80;;;8.45;;
57101;SDS011;42982;54.558;18.508;2023-12-07T00:47:27;12.20;;;7.20;;
57101;SDS011;42982;54.558;18.508;2023-12-07T00:48:32;11.90;;;7.15;;
57101;SDS011;42982;54.558;18.508;2023-12-07T00:49:38;11.95;;;6.97;;
57101;SDS011;42982;54.558;18.508;2023-12-07T00:50:43;12.75;;;7.20;;
57101;SDS011;42982;54.558;18.508;2023-12-07T00:51:45;11.32;;;6.53;;
57101;SDS011;42982;54.558;18.508;2023-12-07T00:52:47;11.10;;;6.63;;
57101;SDS011;42982;54.558;18.508;2023-12-07T00:53:50;14.32;;;7.80;;
57101;SDS011;42982;54.558;18.508;2023-12-07T00:54:54;12.65;;;6.93;;
57101;SDS011;42982;54.558;18.508;2023-12-07T00:56:02;12.93;;;7.38;;
57101;SDS011;42982;54.558;18.508;2023-12-07T00:57:03;13.40;;;6.90;;
57101;SDS011;42982;54.558;18.508;2023-12-07T00:58:05;12.90;;;7.15;;
57101;SDS011;42982;54.558;18.508;2023-12-07T00:59:09;13.70;;;7.40;;
57101;SDS011;42982;54.558;18.508;2023-12-07T01:00:15;13.27;;;7.00;;
57101;SDS011;42982;54.558;18.508;2023-12-07T01:01:19;11.80;;;7.38;;
57101;SDS011;42982;54.558;18.508;2023-12-07T01:02:21;11.35;;;6.90;;
57101;SDS011;42982;54.558;18.508;2023-12-07T01:03:23;11.77;;;6.35;;
57101;SDS011;42982;54.558;18.508;2023-12-07T01:04:25;12.68;;;7.15;;
57101;SDS011;42982;54.558;18.508;2023-12-07T01:05:32;11.27;;;6.55;;
57101;SDS011;42982;54.558;18.508;2023-12-07T01:06:37;11.38;;;6.30;;
57101;SDS011;42982;54.558;18.508;2023-12-07T01:07:41;10.05;;;6.45;;
57101;SDS011;42982;54.558;18.508;2023-12-07T01:08:43;11.32;;;6.72;;
57101;SDS011;42982;54.558;18.508;2023-12-07T01:09:44;10.00;;;6.55;;
57101;SDS011;42982;54.558;18.508;2023-12-07T01:10:46;11.32;;;6.80;;
57101;SDS011;42982;54.558;18.508;2023-12-07T01:11:50;10.73;;;6.57;;
57101;SDS011;42982;54.558;18.508;2023-12-07T01:12:51;11.15;;;6.43;;
57101;SDS011;42982;54.558;18.508;2023-12-07T01:13:52;10.70;;;6.85;;
57101;SDS011;42982;54.558;18.508;2023-12-07T01:14:54;9.07;;;6.35;;
57101;SDS011;42982;54.558;18.508;2023-12-07T01:15:56;13.18;;;6.63;;
57101;SDS011;42982;54.558;18.508;2023-12-07T01:16:58;10.88;;;6.95;;
57101;SDS011;42982;54.558;18.508;2023-12-07T01:17:59;10.70;;;6.90;;
57101;SDS011;42982;54.558;18.508;2023-12-07T01:19:04;11.25;;;6.57;;
57101;SDS011;42982;54.558;18.508;2023-12-07T01:20:07;11.10;;;6.60;;
57101;SDS011;42982;54.558;18.508;2023-12-07T01:21:13;11.95;;;7.00;;
57101;SDS011;42982;54.558;18.508;2023-12-07T01:22:15;11.63;;;7.20;;
57101;SDS011;42982;54.558;18.508;2023-12-07T01:23:20;11.30;;;6.70;;
57101;SDS011;42982;54.558;18.508;2023-12-07T01:24:21;12.52;;;6.82;;
57101;SDS011;42982;54.558;18.508;2023-12-07T01:25:23;11.57;;;6.80;;
57101;SDS011;42982;54.558;18.508;2023-12-07T01:26:25;10.32;;;6.63;;
57101;SDS011;42982;54.558;18.508;2023-12-07T01:27:27;10.60;;;6.95;;
57101;SDS011;42982;54.558;18.508;2023-12-07T01:28:28;15.00;;;6.78;;
57101;SDS011;42982;54.558;18.508;2023-12-07T01:29:30;10.70;;;6.18;;
57101;SDS011;42982;54.558;18.508;2023-12-07T01:30:34;10.98;;;6.78;;
57101;SDS011;42982;54.558;18.508;2023-12-07T01:31:37;13.25;;;6.80;;
57101;SDS011;42982;54.558;18.508;2023-12-07T01:32:38;10.43;;;6.47;;
57101;SDS011;42982;54.558;18.508;2023-12-07T01:33:40;9.15;;;6.75;;
57101;SDS011;42982;54.558;18.508;2023-12-07T01:34:44;11.98;;;6.93;;
57101;SDS011;42982;54.558;18.508;2023-12-07T01:35:48;10.40;;;6.07;;
57101;SDS011;42982;54.558;18.508;2023-12-07T01:36:50;12.82;;;6.40;;
57101;SDS011;42982;54.558;18.508;2023-12-07T01:37:52;11.10;;;6.38;;
57101;SDS011;42982;54.558;18.508;2023-12-07T01:38:55;10.50;;;6.43;;
57101;SDS011;42982;54.558;18.508;2023-12-07T01:39:57;11.55;;;6.88;;
57101;SDS011;42982;54.558;18.508;2023-12-07T01:40:59;11.32;;;6.47;;
57101;SDS011;42982;54.558;18.508;2023-12-07T01:42:01;10.10;;;6.70;;
57101;SDS011;42982;54.558;18.508;2023-12-07T01:43:06;12.15;;;6.43;;
57101;SDS011;42982;54.558;18.508;2023-12-07T01:44:07;9.82;;;6.18;;
57101;SDS011;42982;54.558;18.508;2023-12-07T01:45:09;10.35;;;5.95;;
57101;SDS011;42982;54.558;18.508;2023-12-07T01:46:11;9.77;;;5.90;;
57101;SDS011;42982;54.558;18.508;2023-12-07T01:47:12;11.50;;;6.75;;
57101;SDS011;42982;54.558;18.508;2023-12-07T01:48:14;11.25;;;6.63;;
57101;SDS011;42982;54.558;18.508;2023-12-07T01:49:16;9.88;;;5.97;;
57101;SDS011;42982;54.558;18.508;2023-12-07T01:50:17;10.43;;;5.43;;
57101;SDS011;42982;54.558;18.508;2023-12-07T01:51:23;12.98;;;6.25;;
57101;SDS011;42982;54.558;18.508;2023-12-07T01:52:25;10.93;;;6.85;;
57101;SDS011;42982;54.558;18.508;2023-12-07T01:53:29;14.80;;;8.07;;
57101;SDS011;42982;54.558;18.508;2023-12-07T01:54:30;14.35;;;7.45;;
57101;SDS011;42982;54.558;18.508;2023-12-07T01:55:32;15.32;;;8.30;;
57101;SDS011;42982;54.558;18.508;2023-12-07T01:56:34;15.27;;;8.43;;
57101;SDS011;42982;54.558;18.508;2023-12-07T01:57:36;15.45;;;8.00;;
57101;SDS011;42982;54.558;18.508;2023-12-07T01:58:38;17.95;;;9.55;;
57101;SDS011;42982;54.558;18.508;2023-12-07T01:59:40;16.27;;;9.05;;
57101;SDS011;42982;54.558;18.508;2023-12-07T02:00:48;15.80;;;8.98;;
57101;SDS011;42982;54.558;18.508;2023-12-07T02:01:50;17.00;;;9.27;;
57101;SDS011;42982;54.558;18.508;2023-12-07T02:02:51;15.93;;;9.35;;
57101;SDS011;42982;54.558;18.508;2023-12-07T02:03:53;16.15;;;9.23;;
57101;SDS011;42982;54.558;18.508;2023-12-07T02:04:55;18.73;;;9.88;;
57101;SDS011;42982;54.558;18.508;2023-12-07T02:05:57;17.13;;;9.98;;
57101;SDS011;42982;54.558;18.508;2023-12-07T02:07:00;15.20;;;8.70;;
57101;SDS011;42982;54.558;18.508;2023-12-07T02:08:05;16.58;;;9.45;;
57101;SDS011;42982;54.558;18.508;2023-12-07T02:09:06;15.77;;;9.30;;
57101;SDS011;42982;54.558;18.508;2023-12-07T02:10:10;17.00;;;9.52;;
57101;SDS011;42982;54.558;18.508;2023-12-07T02:11:14;16.10;;;8.90;;
57101;SDS011;42982;54.558;18.508;2023-12-07T02:12:18;16.05;;;8.93;;
57101;SDS011;42982;54.558;18.508;2023-12-07T02:13:20;19.55;;;9.30;;
57101;SDS011;42982;54.558;18.508;2023-12-07T02:14:24;14.57;;;8.70;;
57101;SDS011;42982;54.558;18.508;2023-12-07T02:15:28;18.08;;;9.15;;
57101;SDS011;42982;54.558;18.508;2023-12-07T02:16:30;15.65;;;8.30;;
57101;SDS011;42982;54.558;18.508;2023-12-07T02:19:07;13.10;;;7.90;;
57101;SDS011;42982;54.558;18.508;2023-12-07T02:20:39;11.75;;;7.10;;
57101;SDS011;42982;54.558;18.508;2023-12-07T02:22:07;13.68;;;7.68;;
57101;SDS011;42982;54.558;18.508;2023-12-07T02:23:13;13.10;;;7.38;;
57101;SDS011;42982;54.558;18.508;2023-12-07T02:24:20;11.93;;;6.55;;
57101;SDS011;42982;54.558;18.508;2023-12-07T02:26:47;11.18;;;6.53;;
57101;SDS011;42982;54.558;18.508;2023-12-07T02:27:52;10.50;;;6.40;;
57101;SDS011;42982;54.558;18.508;2023-12-07T02:28:54;11.30;;;6.60;;
57101;SDS011;42982;54.558;18.508;2023-12-07T02:29:56;10.05;;;6.18;;
57101;SDS011;42982;54.558;18.508;2023-12-07T02:30:57;12.70;;;6.93;;
57101;SDS011;42982;54.558;18.508;2023-12-07T02:31:59;11.02;;;6.55;;
57101;SDS011;42982;54.558;18.508;2023-12-07T02:33:02;13.32;;;6.40;;
57101;SDS011;42982;54.558;18.508;2023-12-07T02:34:03;11.38;;;7.18;;
57101;SDS011;42982;54.558;18.508;2023-12-07T02:35:05;10.13;;;6.57;;
57101;SDS011;42982;54.558;18.508;2023-12-07T02:36:10;10.57;;;6.18;;
57101;SDS011;42982;54.558;18.508;2023-12-07T02:37:18;13.48;;;6.53;;
57101;SDS011;42982;54.558;18.508;2023-12-07T02:38:22;11.20;;;6.78;;
57101;SDS011;42982;54.558;18.508;2023-12-07T02:39:26;11.48;;;6.50;;
57101;SDS011;42982;54.558;18.508;2023-12-07T02:40:28;10.73;;;6.63;;
57101;SDS011;42982;54.558;18.508;2023-12-07T02:41:30;11.60;;;6.82;;
57101;SDS011;42982;54.558;18.508;2023-12-07T02:42:38;10.63;;;6.80;;
57101;SDS011;42982;54.558;18.508;2023-12-07T02:43:41;10.88;;;6.53;;
57101;SDS011;42982;54.558;18.508;2023-12-07T02:44:43;12.50;;;6.72;;
57101;SDS011;42982;54.558;18.508;2023-12-07T02:45:48;10.15;;;6.43;;
57101;SDS011;42982;54.558;18.508;2023-12-07T02:46:50;10.68;;;6.65;;
57101;SDS011;42982;54.558;18.508;2023-12-07T02:47:55;13.63;;;6.70;;
57101;SDS011;42982;54.558;18.508;2023-12-07T02:48:57;10.45;;;6.32;;
57101;SDS011;42982;54.558;18.508;2023-12-07T02:49:59;9.35;;;6.20;;
57101;SDS011;42982;54.558;18.508;2023-12-07T02:51:06;12.50;;;7.28;;
57101;SDS011;42982;54.558;18.508;2023-12-07T02:52:08;10.07;;;6.53;;
57101;SDS011;42982;54.558;18.508;2023-12-07T02:53:09;10.05;;;6.10;;
57101;SDS011;42982;54.558;18.508;2023-12-07T02:54:11;9.95;;;6.15;;
57101;SDS011;42982;54.558;18.508;2023-12-07T02:55:14;11.75;;;6.93;;
57101;SDS011;42982;54.558;18.508;2023-12-07T02:56:15;10.32;;;5.75;;
57101;SDS011;42982;54.558;18.508;2023-12-07T02:57:20;9.82;;;5.97;;
57101;SDS011;42982;54.558;18.508;2023-12-07T02:58:25;9.75;;;6.10;;
57101;SDS011;42982;54.558;18.508;2023-12-07T02:59:27;11.18;;;6.30;;
57101;SDS011;42982;54.558;18.508;2023-12-07T03:00:29;10.13;;;5.65;;
57101;SDS011;42982;54.558;18.508;2023-12-07T03:01:31;9.13;;;6.10;;
57101;SDS011;42982;54.558;18.508;2023-12-07T03:02:42;10.25;;;6.25;;
57101;SDS011;42982;54.558;18.508;2023-12-07T03:03:54;12.95;;;6.80;;
57101;SDS011;42982;54.558;18.508;2023-12-07T03:04:56;10.82;;;6.20;;
57101;SDS011;42982;54.558;18.508;2023-12-07T03:06:00;10.57;;;6.38;;
57101;SDS011;42982;54.558;18.508;2023-12-07T03:07:03;11.18;;;6.53;;
57101;SDS011;42982;54.558;18.508;2023-12-07T03:08:05;10.10;;;5.93;;
57101;SDS011;42982;54.558;18.508;2023-12-07T03:09:06;10.70;;;6.30;;
57101;SDS011;42982;54.558;18.508;2023-12-07T03:10:07;10.13;;;6.72;;
57101;SDS011;42982;54.558;18.508;2023-12-07T03:11:09;9.68;;;6.03;;
57101;SDS011;42982;54.558;18.508;2023-12-07T03:12:14;10.65;;;5.72;;
57101;SDS011;42982;54.558;18.508;2023-12-07T03:13:16;10.88;;;6.18;;
57101;SDS011;42982;54.558;18.508;2023-12-07T03:14:20;11.73;;;6.28;;
57101;SDS011;42982;54.558;18.508;2023-12-07T03:15:21;9.55;;;5.97;;
57101;SDS011;42982;54.558;18.508;2023-12-07T03:16:24;8.98;;;6.10;;
57101;SDS011;42982;54.558;18.508;2023-12-07T03:17:28;11.88;;;6.57;;
57101;SDS011;42982;54.558;18.508;2023-12-07T03:18:30;10.60;;;6.28;;
57101;SDS011;42982;54.558;18.508;2023-12-07T03:19:32;8.80;;;5.75;;
57101;SDS011;42982;54.558;18.508;2023-12-07T03:20:40;9.63;;;6.22;;
57101;SDS011;42982;54.558;18.508;2023-12-07T03:21:42;11.43;;;6.88;;
57101;SDS011;42982;54.558;18.508;2023-12-07T03:22:45;10.35;;;6.10;;
57101;SDS011;42982;54.558;18.508;2023-12-07T03:23:46;9.05;;;5.70;;
57101;SDS011;42982;54.558;18.508;2023-12-07T03:24:52;9.02;;;5.50;;
57101;SDS011;42982;54.558;18.508;2023-12-07T03:25:53;9.73;;;6.03;;
57101;SDS011;42982;54.558;18.508;2023-12-07T03:26:55;9.73;;;5.93;;
57101;SDS011;42982;54.558;18.508;2023-12-07T03:27:57;10.48;;;6.45;;
57101;SDS011;42982;54.558;18.508;2023-12-07T03:28:59;9.52;;;6.10;;
57101;SDS011;42982;54.558;18.508;2023-12-07T03:29:59;9.57;;;5.32;;
57101;SDS011;42982;54.558;18.508;2023-12-07T03:31:01;9.82;;;6.18;;
57101;SDS011;42982;54.558;18.508;2023-12-07T03:32:04;9.82;;;5.57;;
57101;SDS011;42982;54.558;18.508;2023-12-07T03:33:07;9.73;;;5.90;;
57101;SDS011;42982;54.558;18.508;2023-12-07T03:34:12;9.75;;;5.75;;
57101;SDS011;42982;54.558;18.508;2023-12-07T03:35:15;9.73;;;5.80;;
57101;SDS011;42982;54.558;18.508;2023-12-07T03:36:18;9.52;;;5.65;;
57101;SDS011;42982;54.558;18.508;2023-12-07T03:37:20;9.98;;;5.93;;
57101;SDS011;42982;54.558;18.508;2023-12-07T03:38:22;8.93;;;5.97;;
57101;SDS011;42982;54.558;18.508;2023-12-07T03:39:23;8.30;;;5.50;;
57101;SDS011;42982;54.558;18.508;2023-12-07T03:40:26;8.10;;;5.25;;
57101;SDS011;42982;54.558;18.508;2023-12-07T03:41:28;10.05;;;5.80;;
57101;SDS011;42982;54.558;18.508;2023-12-07T03:42:29;8.32;;;5.50;;
57101;SDS011;42982;54.558;18.508;2023-12-07T03:43:31;8.40;;;5.32;;
57101;SDS011;42982;54.558;18.508;2023-12-07T03:44:36;8.38;;;5.78;;
57101;SDS011;42982;54.558;18.508;2023-12-07T03:45:38;8.50;;;5.18;;
57101;SDS011;42982;54.558;18.508;2023-12-07T03:46:39;8.30;;;5.57;;
57101;SDS011;42982;54.558;18.508;2023-12-07T03:47:44;10.52;;;6.10;;
57101;SDS011;42982;54.558;18.508;2023-12-07T03:48:50;9.50;;;5.97;;
57101;SDS011;42982;54.558;18.508;2023-12-07T03:49:52;8.38;;;5.30;;
57101;SDS011;42982;54.558;18.508;2023-12-07T03:50:54;9.60;;;6.05;;
57101;SDS011;42982;54.558;18.508;2023-12-07T03:51:57;9.93;;;5.90;;
57101;SDS011;42982;54.558;18.508;2023-12-07T03:53:00;9.50;;;5.68;;
57101;SDS011;42982;54.558;18.508;2023-12-07T03:54:01;9.93;;;5.97;;
57101;SDS011;42982;54.558;18.508;2023-12-07T03:55:06;9.60;;;5.40;;
57101;SDS011;42982;54.558;18.508;2023-12-07T03:56:26;9.50;;;5.80;;
57101;SDS011;42982;54.558;18.508;2023-12-07T03:57:28;9.77;;;6.10;;
57101;SDS011;42982;54.558;18.508;2023-12-07T03:58:31;9.40;;;5.40;;
57101;SDS011;42982;54.558;18.508;2023-12-07T03:59:35;9.73;;;5.60;;
57101;SDS011;42982;54.558;18.508;2023-12-07T04:00:36;9.52;;;5.40;;
57101;SDS011;42982;54.558;18.508;2023-12-07T04:01:39;9.40;;;5.22;;
57101;SDS011;42982;54.558;18.508;2023-12-07T04:02:41;8.55;;;5.28;;
57101;SDS011;42982;54.558;18.508;2023-12-07T04:03:42;8.93;;;5.63;;
57101;SDS011;42982;54.558;18.508;2023-12-07T04:04:44;8.80;;;5.47;;
57101;SDS011;42982;54.558;18.508;2023-12-07T04:05:46;9.50;;;5.47;;
57101;SDS011;42982;54.558;18.508;2023-12-07T04:06:47;8.43;;;5.30;;
57101;SDS011;42982;54.558;18.508;2023-12-07T04:07:49;8.18;;;5.45;;
57101;SDS011;42982;54.558;18.508;2023-12-07T04:08:51;9.57;;;5.95;;
57101;SDS011;42982;54.558;18.508;2023-12-07T04:09:52;8.60;;;5.55;;
57101;SDS011;42982;54.558;18.508;2023-12-07T04:10:54;9.43;;;5.60;;
57101;SDS011;42982;54.558;18.508;2023-12-07T04:11:56;7.90;;;5.20;;
57101;SDS011;42982;54.558;18.508;2023-12-07T04:12:57;7.97;;;5.57;;
57101;SDS011;42982;54.558;18.508;2023-12-07T04:13:59;9.27;;;5.68;;
57101;SDS011;42982;54.558;18.508;2023-12-07T04:15:04;8.23;;;4.95;;
57101;SDS011;42982;54.558;18.508;2023-12-07T04:16:11;8.65;;;5.25;;
57101;SDS011;42982;54.558;18.508;2023-12-07T04:17:29;9.10;;;5.10;;
57101;SDS011;42982;54.558;18.508;2023-12-07T04:18:32;9.73;;;5.50;;
57101;SDS011;42982;54.558;18.508;2023-12-07T04:19:34;8.13;;;5.18;;
57101;SDS011;42982;54.558;18.508;2023-12-07T04:20:36;7.97;;;5.13;;
57101;SDS011;42982;54.558;18.508;2023-12-07T04:21:37;10.35;;;5.50;;
57101;SDS011;42982;54.558;18.508;2023-12-07T04:22:39;8.80;;;5.28;;
57101;SDS011;42982;54.558;18.508;2023-12-07T04:23:44;10.00;;;5.68;;
57101;SDS011;42982;54.558;18.508;2023-12-07T04:24:45;9.00;;;5.43;;
57101;SDS011;42982;54.558;18.508;2023-12-07T04:25:47;7.95;;;5.25;;
57101;SDS011;42982;54.558;18.508;2023-12-07T04:26:50;9.52;;;5.35;;
57101;SDS011;42982;54.558;18.508;2023-12-07T04:27:51;8.68;;;5.13;;
57101;SDS011;42982;54.558;18.508;2023-12-07T04:28:53;6.75;;;4.80;;
57101;SDS011;42982;54.558;18.508;2023-12-07T04:29:55;8.35;;;5.22;;
57101;SDS011;42982;54.558;18.508;2023-12-07T04:30:57;8.45;;;5.30;;
57101;SDS011;42982;54.558;18.508;2023-12-07T04:31:59;8.68;;;5.28;;
57101;SDS011;42982;54.558;18.508;2023-12-07T04:33:02;7.28;;;4.80;;
57101;SDS011;42982;54.558;18.508;2023-12-07T04:34:03;8.23;;;4.70;;
57101;SDS011;42982;54.558;18.508;2023-12-07T04:35:05;8.50;;;5.00;;
57101;SDS011;42982;54.558;18.508;2023-12-07T04:36:07;7.88;;;5.15;;
57101;SDS011;42982;54.558;18.508;2023-12-07T04:37:10;10.50;;;5.57;;
57101;SDS011;42982;54.558;18.508;2023-12-07T04:38:14;8.40;;;5.00;;
57101;SDS011;42982;54.558;18.508;2023-12-07T04:39:16;8.75;;;5.40;;
57101;SDS011;42982;54.558;18.508;2023-12-07T04:40:18;8.27;;;5.13;;
57101;SDS011;42982;54.558;18.508;2023-12-07T04:41:19;9.57;;;5.65;;
57101;SDS011;42982;54.558;18.508;2023-12-07T04:42:21;7.47;;;4.82;;
57101;SDS011;42982;54.558;18.508;2023-12-07T04:43:23;8.55;;;4.85;;
57101;SDS011;42982;54.558;18.508;2023-12-07T04:44:24;7.85;;;5.25;;
57101;SDS011;42982;54.558;18.508;2023-12-07T04:45:26;9.10;;;5.15;;
57101;SDS011;42982;54.558;18.508;2023-12-07T04:46:28;8.90;;;5.50;;
57101;SDS011;42982;54.558;18.508;2023-12-07T04:47:31;8.15;;;5.10;;
57101;SDS011;42982;54.558;18.508;2023-12-07T04:48:33;8.60;;;5.03;;
57101;SDS011;42982;54.558;18.508;2023-12-07T04:49:37;7.45;;;4.70;;
57101;SDS011;42982;54.558;18.508;2023-12-07T04:50:41;7.97;;;4.97;;
57101;SDS011;42982;54.558;18.508;2023-12-07T04:51:43;9.85;;;5.50;;
57101;SDS011;42982;54.558;18.508;2023-12-07T04:52:47;9.23;;;5.75;;
57101;SDS011;42982;54.558;18.508;2023-12-07T04:53:48;7.88;;;4.93;;
57101;SDS011;42982;54.558;18.508;2023-12-07T04:54:50;8.93;;;5.00;;
57101;SDS011;42982;54.558;18.508;2023-12-07T04:55:52;7.97;;;4.93;;
57101;SDS011;42982;54.558;18.508;2023-12-07T04:56:53;9.15;;;5.35;;
57101;SDS011;42982;54.558;18.508;2023-12-07T04:57:58;8.40;;;5.05;;
57101;SDS011;42982;54.558;18.508;2023-12-07T04:59:00;9.02;;;5.35;;
57101;SDS011;42982;54.558;18.508;2023-12-07T05:00:07;8.48;;;5.10;;
57101;SDS011;42982;54.558;18.508;2023-12-07T05:01:12;9.98;;;4.75;;
57101;SDS011;42982;54.558;18.508;2023-12-07T05:02:15;10.48;;;5.50;;
57101;SDS011;42982;54.558;18.508;2023-12-07T05:03:19;8.77;;;5.28;;
57101;SDS011;42982;54.558;18.508;2023-12-07T05:04:23;8.70;;;5.20;;
57101;SDS011;42982;54.558;18.508;2023-12-07T05:05:25;11.27;;;5.07;;
57101;SDS011;42982;54.558;18.508;2023-12-07T05:06:27;8.57;;;5.30;;
57101;SDS011;42982;54.558;18.508;2023-12-07T05:07:31;9.55;;;4.78;;
57101;SDS011;42982;54.558;18.508;2023-12-07T05:08:34;8.75;;;4.75;;
57101;SDS011;42982;54.558;18.508;2023-12-07T05:09:36;8.65;;;5.32;;
57101;SDS011;42982;54.558;18.508;2023-12-07T05:10:40;8.23;;;4.80;;
57101;SDS011;42982;54.558;18.508;2023-12-07T05:11:45;9.10;;;5.00;;
57101;SDS011;42982;54.558;18.508;2023-12-07T05:12:47;7.88;;;4.78;;
57101;SDS011;42982;54.558;18.508;2023-12-07T05:13:51;8.38;;;5.05;;
57101;SDS011;42982;54.558;18.508;2023-12-07T05:14:53;8.23;;;4.85;;
57101;SDS011;42982;54.558;18.508;2023-12-07T05:15:55;10.95;;;5.60;;
57101;SDS011;42982;54.558;18.508;2023-12-07T05:16:57;10.60;;;4.93;;
57101;SDS011;42982;54.558;18.508;2023-12-07T05:17:58;7.88;;;4.47;;
57101;SDS011;42982;54.558;18.508;2023-12-07T05:19:02;8.10;;;4.95;;
57101;SDS011;42982;54.558;18.508;2023-12-07T05:20:07;8.75;;;5.10;;
57101;SDS011;42982;54.558;18.508;2023-12-07T05:21:12;8.45;;;5.00;;
57101;SDS011;42982;54.558;18.508;2023-12-07T05:22:14;7.85;;;4.93;;
57101;SDS011;42982;54.558;18.508;2023-12-07T05:23:16;8.38;;;5.10;;
57101;SDS011;42982;54.558;18.508;2023-12-07T05:24:18;7.07;;;4.60;;
57101;SDS011;42982;54.558;18.508;2023-12-07T05:25:21;7.28;;;4.63;;
57101;SDS011;42982;54.558;18.508;2023-12-07T05:26:23;8.55;;;5.20;;
57101;SDS011;42982;54.558;18.508;2023-12-07T05:27:24;7.45;;;5.00;;
57101;SDS011;42982;54.558;18.508;2023-12-07T05:28:29;10.25;;;5.57;;
57101;SDS011;42982;54.558;18.508;2023-12-07T05:29:32;8.02;;;5.30;;
57101;SDS011;42982;54.558;18.508;2023-12-07T05:30:34;6.85;;;4.50;;
57101;SDS011;42982;54.558;18.508;2023-12-07T05:31:36;8.25;;;4.88;;
57101;SDS011;42982;54.558;18.508;2023-12-07T05:32:38;6.45;;;4.75;;
57101;SDS011;42982;54.558;18.508;2023-12-07T05:33:40;9.15;;;4.90;;
57101;SDS011;42982;54.558;18.508;2023-12-07T05:34:42;8.00;;;4.80;;
57101;SDS011;42982;54.558;18.508;2023-12-07T05:35:45;9.10;;;5.32;;
57101;SDS011;42982;54.558;18.508;2023-12-07T05:36:50;8.07;;;4.97;;
57101;SDS011;42982;54.558;18.508;2023-12-07T05:37:52;8.50;;;5.07;;
57101;SDS011;42982;54.558;18.508;2023-12-07T05:38:56;8.60;;;5.30;;
57101;SDS011;42982;54.558;18.508;2023-12-07T05:39:58;7.93;;;4.93;;
57101;SDS011;42982;54.558;18.508;2023-12-07T05:41:00;8.25;;;4.93;;
57101;SDS011;42982;54.558;18.508;2023-12-07T05:42:02;8.82;;;5.10;;
57101;SDS011;42982;54.558;18.508;2023-12-07T05:43:05;9.88;;;5.20;;
57101;SDS011;42982;54.558;18.508;2023-12-07T05:44:08;8.63;;;5.38;;
57101;SDS011;42982;54.558;18.508;2023-12-07T05:45:10;8.73;;;4.63;;
57101;SDS011;42982;54.558;18.508;2023-12-07T05:46:13;7.97;;;4.90;;
57101;SDS011;42982;54.558;18.508;2023-12-07T05:47:15;9.05;;;4.60;;
57101;SDS011;42982;54.558;18.508;2023-12-07T05:48:22;7.78;;;4.68;;
57101;SDS011;42982;54.558;18.508;2023-12-07T05:49:24;6.30;;;4.35;;
57101;SDS011;42982;54.558;18.508;2023-12-07T05:50:26;6.70;;;4.32;;
57101;SDS011;42982;54.558;18.508;2023-12-07T05:51:28;7.43;;;4.38;;
57101;SDS011;42982;54.558;18.508;2023-12-07T05:52:36;8.43;;;3.95;;
57101;SDS011;42982;54.558;18.508;2023-12-07T05:53:38;7.00;;;4.20;;
57101;SDS011;42982;54.558;18.508;2023-12-07T05:54:41;7.28;;;3.30;;
57101;SDS011;42982;54.558;18.508;2023-12-07T05:55:43;7.10;;;3.63;;
57101;SDS011;42982;54.558;18.508;2023-12-07T05:56:47;7.50;;;3.63;;
57101;SDS011;42982;54.558;18.508;2023-12-07T05:57:49;4.80;;;3.13;;
57101;SDS011;42982;54.558;18.508;2023-12-07T05:58:50;6.00;;;3.58;;
57101;SDS011;42982;54.558;18.508;2023-12-07T05:59:51;6.22;;;3.55;;
57101;SDS011;42982;54.558;18.508;2023-12-07T06:00:56;5.38;;;3.30;;
57101;SDS011;42982;54.558;18.508;2023-12-07T06:01:59;5.68;;;3.33;;
57101;SDS011;42982;54.558;18.508;2023-12-07T06:03:02;5.32;;;3.47;;
57101;SDS011;42982;54.558;18.508;2023-12-07T06:04:05;5.57;;;3.58;;
57101;SDS011;42982;54.558;18.508;2023-12-07T06:05:08;5.43;;;3.30;;
57101;SDS011;42982;54.558;18.508;2023-12-07T06:06:11;7.20;;;3.70;;
57101;SDS011;42982;54.558;18.508;2023-12-07T06:07:13;6.40;;;3.70;;
57101;SDS011;42982;54.558;18.508;2023-12-07T06:08:15;5.47;;;3.42;;
57101;SDS011;42982;54.558;18.508;2023-12-07T06:09:16;5.88;;;3.60;;
57101;SDS011;42982;54.558;18.508;2023-12-07T06:10:18;5.70;;;3.60;;
57101;SDS011;42982;54.558;18.508;2023-12-07T06:11:22;7.30;;;3.67;;
57101;SDS011;42982;54.558;18.508;2023-12-07T06:12:24;7.85;;;3.80;;
57101;SDS011;42982;54.558;18.508;2023-12-07T06:13:26;4.95;;;3.50;;
57101;SDS011;42982;54.558;18.508;2023-12-07T06:14:31;6.00;;;3.72;;
57101;SDS011;42982;54.558;18.508;2023-12-07T06:15:33;8.05;;;4.13;;